Loco, Georgia
Current Conditions -  °F | °C
As of 2:55 PM on Sunday 23 Nov 2014 (Local Time) from KHQU Reporting Station
Overcast Overcast  
Wind Chill: 62°   Ceiling: 600
Heat Index: 62°   Visibility: 2mi
Dew Point: 62°   Wind: 7mph
Humidity: 100%   Direction: 110°ESE
Pressure: 29.86"   Gusts: NA
Location:  33.7816°N, 82.4511°W
Report Text: KHQU 231955Z AUTO 11006KT 070V130 2SM OVC006 17/17 A2986 RMK AO1 T01660166
Loading
Personal Weather Stations






























Interactive Weather Map New forecast layout! Learn more

10-Day Weather Forecast

Advertisements
Track Severe Weather on mobile